createdAt,value
2023-03-12T00:02:59.861Z,25.70
2023-03-12T00:06:59.903Z,27.96
2023-03-12T00:11:00.066Z,27.64
2023-03-12T00:15:00.290Z,28.93
2023-03-12T00:19:00.472Z,28.75
2023-03-12T00:23:00.660Z,26.17
2023-03-12T00:27:00.880Z,40.08
2023-03-12T00:31:01.107Z,37.19
2023-03-12T00:35:01.225Z,40.67
2023-03-12T00:39:01.471Z,39.86
2023-03-12T00:43:01.610Z,37.74
2023-03-12T00:47:01.909Z,37.19
2023-03-12T00:51:01.818Z,37.26
2023-03-12T00:55:01.762Z,38.05
2023-03-12T00:59:01.717Z,40.52
2023-03-12T01:03:01.715Z,34.83
2023-03-12T01:07:01.649Z,38.05
2023-03-12T01:11:01.623Z,34.23
2023-03-12T01:15:01.588Z,36.12
2023-03-12T01:19:01.533Z,37.37
2023-03-12T01:23:01.513Z,33.34
2023-03-12T01:27:01.481Z,34.11
2023-03-12T01:31:01.473Z,35.14
2023-03-12T01:35:01.656Z,27.25
2023-03-12T01:39:01.859Z,35.37
2023-03-12T01:43:01.824Z,37.62
2023-03-12T01:47:01.826Z,37.67
2023-03-12T01:51:01.747Z,40.10
2023-03-12T01:55:01.709Z,29.33
2023-03-12T01:59:01.687Z,36.17
2023-03-12T02:03:01.639Z,36.25
2023-03-12T02:07:01.625Z,35.35
2023-03-12T02:11:01.573Z,30.38
2023-03-12T02:15:01.518Z,30.87
2023-03-12T02:19:01.487Z,25.68
2023-03-12T02:23:01.451Z,28.17
2023-03-12T02:27:01.594Z,24.63
2023-03-12T02:31:01.557Z,31.44
2023-03-12T02:35:01.516Z,33.29
2023-03-12T02:39:01.507Z,33.90
2023-03-12T02:43:01.454Z,33.11
2023-03-12T02:47:01.403Z,26.10
2023-03-12T02:51:01.368Z,35.28
2023-03-12T02:55:01.337Z,26.98
2023-03-12T02:59:04.272Z,29.04
2023-03-12T03:03:01.264Z,27.98
2023-03-12T03:07:01.217Z,35.45
2023-03-12T03:11:01.182Z,28.20
2023-03-12T03:15:01.186Z,35.43
2023-03-12T03:19:01.139Z,35.93
2023-03-12T03:23:01.122Z,28.79
2023-03-12T03:27:01.058Z,36.20
2023-03-12T03:31:01.039Z,37.50
2023-03-12T03:35:01.118Z,40.68
2023-03-12T03:39:01.049Z,39.73
2023-03-12T03:43:01.109Z,36.46
2023-03-12T03:47:01.012Z,32.19
2023-03-12T03:51:00.918Z,31.38
2023-03-12T03:55:00.898Z,27.85
2023-03-12T03:59:00.865Z,32.27
2023-03-12T04:03:00.897Z,34.77
2023-03-12T04:07:00.807Z,27.84
2023-03-12T04:11:00.751Z,32.50
2023-03-12T04:15:00.708Z,31.13
2023-03-12T04:19:00.833Z,28.26
2023-03-12T04:23:01.002Z,30.25
2023-03-12T04:27:01.170Z,30.01
2023-03-12T04:31:01.495Z,28.89
2023-03-12T04:35:01.524Z,32.38
2023-03-12T04:39:01.688Z,34.83
2023-03-12T04:43:01.673Z,34.23
2023-03-12T04:47:01.650Z,30.36
2023-03-12T04:51:01.633Z,31.95
2023-03-12T04:55:01.543Z,35.61
2023-03-12T04:59:01.516Z,31.29
2023-03-12T05:03:01.563Z,31.81
2023-03-12T05:07:01.477Z,37.19
2023-03-12T05:11:01.376Z,32.60
2023-03-12T05:15:01.383Z,33.84
2023-03-12T05:19:01.361Z,33.84
2023-03-12T05:23:01.309Z,32.35
2023-03-12T05:27:01.352Z,34.59
2023-03-12T05:31:01.301Z,38.37
2023-03-12T05:35:01.281Z,37.15
2023-03-12T05:39:01.244Z,35.68
2023-03-12T05:43:01.221Z,37.78
2023-03-12T05:47:01.669Z,30.41
2023-03-12T05:51:01.118Z,29.74
2023-03-12T05:55:01.101Z,33.20
2023-03-12T05:59:01.070Z,33.05
2023-03-12T06:03:01.040Z,33.53
2023-03-12T06:07:01.004Z,32.28
2023-03-12T06:11:00.977Z,28.01
2023-03-12T06:15:01.158Z,38.92
2023-03-12T06:19:01.121Z,37.19
2023-03-12T06:23:01.105Z,36.91
2023-03-12T06:27:01.015Z,36.70
2023-03-12T06:31:00.988Z,37.84
2023-03-12T06:35:00.961Z,37.49
2023-03-12T06:39:00.937Z,38.80
2023-03-12T06:43:00.935Z,41.03
2023-03-12T06:47:00.936Z,40.95
2023-03-12T06:51:00.814Z,41.40
2023-03-12T06:55:01.189Z,44.26
2023-03-12T06:59:00.755Z,46.69
2023-03-12T07:03:00.781Z,46.24
2023-03-12T07:07:01.014Z,52.79
2023-03-12T07:11:01.991Z,58.11
2023-03-12T07:15:01.317Z,50.09
2023-03-12T07:19:01.573Z,51.98
2023-03-12T07:23:01.731Z,51.39
2023-03-12T07:27:01.910Z,48.21
2023-03-12T07:31:02.130Z,47.88
2023-03-12T07:35:02.258Z,50.29
2023-03-12T07:39:02.432Z,57.15
2023-03-12T07:43:02.611Z,58.84
2023-03-12T07:47:16.517Z,59.53
2023-03-12T07:51:03.743Z,61.81
2023-03-12T07:55:02.775Z,59.30
2023-03-12T07:59:02.991Z,67.27
2023-03-12T08:03:03.108Z,74.88
2023-03-12T08:07:03.191Z,73.48
2023-03-12T08:11:03.242Z,79.68
2023-03-12T08:15:03.311Z,96.29
2023-03-12T08:19:03.415Z,94.63
2023-03-12T08:23:03.521Z,91.58
2023-03-12T08:27:03.608Z,91.79
2023-03-12T08:31:03.663Z,90.92
2023-03-12T08:35:03.758Z,91.90
2023-03-12T08:39:03.882Z,89.53
2023-03-12T08:43:03.943Z,89.55
2023-03-12T08:47:04.064Z,92.12
2023-03-12T08:51:03.993Z,91.58
2023-03-12T08:55:03.942Z,86.22
2023-03-12T08:59:03.954Z,82.23
2023-03-12T09:03:03.892Z,84.37
2023-03-12T09:07:03.855Z,80.72
2023-03-12T09:11:03.872Z,79.39
2023-03-12T09:15:05.087Z,78.12
2023-03-12T09:19:03.758Z,73.94
2023-03-12T09:23:03.717Z,69.05
2023-03-12T09:27:03.682Z,72.42
2023-03-12T09:31:03.845Z,70.27
2023-03-12T09:35:03.581Z,69.94
2023-03-12T09:39:03.583Z,70.35
2023-03-12T09:43:03.534Z,65.33
2023-03-12T09:47:03.465Z,64.48
2023-03-12T09:51:03.481Z,63.51
2023-03-12T09:55:03.411Z,67.37
2023-03-12T09:59:03.453Z,67.75
2023-03-12T10:03:03.621Z,65.43
2023-03-12T10:07:03.740Z,63.76
2023-03-12T10:11:03.980Z,60.29
2023-03-12T10:15:03.906Z,56.81
2023-03-12T10:19:04.001Z,55.88
2023-03-12T10:23:03.809Z,57.93
2023-03-12T10:27:03.810Z,60.19
2023-03-12T10:31:03.748Z,53.99
2023-03-12T10:35:03.733Z,51.52
2023-03-12T10:39:03.655Z,50.11
2023-03-12T10:43:03.626Z,50.63
2023-03-12T10:47:03.576Z,49.07
2023-03-12T10:51:03.569Z,43.98
2023-03-12T10:55:03.540Z,47.45
2023-03-12T10:59:03.613Z,43.17
2023-03-12T11:03:03.884Z,46.09
2023-03-12T11:07:04.327Z,47.99
2023-03-12T11:11:04.184Z,51.54
2023-03-12T11:15:04.390Z,48.28
2023-03-12T11:19:04.582Z,43.14
2023-03-12T11:23:04.750Z,45.07
2023-03-12T11:27:04.967Z,46.13
2023-03-12T11:31:05.099Z,46.08
2023-03-12T11:35:05.230Z,52.56
2023-03-12T11:39:05.348Z,59.37
2023-03-12T11:43:05.423Z,60.11
2023-03-12T11:47:05.453Z,70.04
2023-03-12T11:51:05.460Z,72.77
2023-03-12T11:55:05.735Z,71.64
2023-03-12T11:59:05.672Z,70.54
2023-03-12T12:03:05.845Z,74.36
2023-03-12T12:07:05.772Z,67.93
2023-03-12T12:11:05.745Z,67.60
2023-03-12T12:15:05.716Z,70.55
2023-03-12T12:19:05.681Z,64.60
2023-03-12T12:23:05.624Z,60.51
2023-03-12T12:27:05.564Z,62.77
2023-03-12T12:31:05.548Z,59.33
2023-03-12T12:35:05.560Z,58.76
2023-03-12T12:39:05.674Z,58.60
2023-03-12T12:43:05.727Z,54.91
2023-03-12T12:47:05.816Z,49.22
2023-03-12T12:51:08.649Z,48.84
2023-03-12T12:55:05.863Z,45.96
2023-03-12T12:59:05.834Z,46.45
2023-03-12T13:03:05.798Z,46.66
2023-03-12T13:07:05.843Z,42.49
2023-03-12T13:11:16.594Z,37.28
2023-03-12T13:15:06.705Z,38.19
2023-03-12T13:19:05.647Z,41.09
2023-03-12T13:23:05.618Z,37.47
2023-03-12T13:27:05.642Z,31.34
2023-03-12T13:31:05.798Z,27.33
2023-03-12T13:35:05.991Z,28.13
2023-03-12T13:39:06.074Z,28.17
2023-03-12T13:43:06.221Z,31.12
2023-03-12T13:47:06.402Z,26.80
2023-03-12T13:51:06.475Z,28.54
2023-03-12T13:55:06.435Z,26.25
2023-03-12T13:59:06.411Z,26.60
2023-03-12T14:03:06.366Z,27.06
2023-03-12T14:07:06.340Z,27.97
2023-03-12T14:11:06.274Z,25.00
2023-03-12T14:15:06.236Z,28.89
2023-03-12T14:19:06.262Z,30.95
2023-03-12T14:23:06.199Z,25.96
2023-03-12T14:27:06.122Z,29.34
2023-03-12T14:31:06.161Z,31.01
2023-03-12T14:35:06.301Z,29.61
2023-03-12T14:39:06.382Z,26.40
2023-03-12T14:43:06.608Z,27.06
2023-03-12T14:47:06.863Z,30.83
2023-03-12T14:51:07.017Z,34.99
2023-03-12T14:55:07.188Z,27.39
2023-03-12T14:59:07.376Z,35.55
2023-03-12T15:03:07.558Z,32.38
2023-03-12T15:07:07.785Z,33.97
2023-03-12T15:11:07.965Z,31.15
2023-03-12T15:15:08.196Z,27.92
2023-03-12T15:19:08.154Z,28.94
2023-03-12T15:23:08.085Z,27.82
2023-03-12T15:27:08.058Z,25.04
2023-03-12T15:31:08.232Z,25.61
2023-03-12T15:35:08.092Z,25.92
2023-03-12T15:39:07.948Z,25.00
2023-03-12T15:43:07.911Z,29.39
2023-03-12T15:47:07.867Z,26.57
2023-03-12T15:51:07.864Z,25.00
2023-03-12T15:55:07.820Z,29.27
2023-03-12T15:59:07.837Z,30.31
2023-03-12T16:03:07.911Z,26.31
2023-03-12T16:07:07.964Z,28.15
2023-03-12T16:11:07.982Z,27.12
2023-03-12T16:15:07.970Z,30.67
2023-03-12T16:19:08.027Z,32.07
2023-03-12T16:23:07.986Z,30.08
2023-03-12T16:27:08.008Z,34.27
2023-03-12T16:31:08.032Z,32.23
2023-03-12T16:35:08.025Z,35.06
2023-03-12T16:39:08.053Z,29.51
2023-03-12T16:43:08.070Z,32.32
2023-03-12T16:47:08.109Z,33.51
2023-03-12T16:51:08.121Z,29.58
2023-03-12T16:55:08.194Z,31.50
2023-03-12T16:59:08.249Z,30.05
2023-03-12T17:03:08.402Z,32.68
2023-03-12T17:07:08.458Z,30.97
2023-03-12T17:11:08.514Z,27.73
2023-03-12T17:15:08.602Z,29.98
2023-03-12T17:19:08.696Z,28.87
2023-03-12T17:23:08.756Z,29.94
2023-03-12T17:27:08.855Z,33.15
2023-03-12T17:31:09.030Z,31.95
2023-03-12T17:35:09.082Z,32.38
2023-03-12T17:39:09.161Z,33.45
2023-03-12T17:43:09.254Z,35.07
2023-03-12T17:47:09.372Z,31.82
2023-03-12T17:51:09.476Z,32.62
2023-03-12T17:55:11.668Z,31.48
2023-03-12T17:59:09.726Z,33.88
2023-03-12T18:03:09.908Z,33.09
2023-03-12T18:07:09.964Z,30.29
2023-03-12T18:11:10.126Z,28.98
2023-03-12T18:15:10.191Z,27.10
2023-03-12T18:19:10.337Z,26.91
2023-03-12T18:23:10.419Z,28.41
2023-03-12T18:27:10.524Z,27.47
2023-03-12T18:31:10.664Z,27.50
2023-03-12T18:35:10.748Z,27.32
2023-03-12T18:39:10.926Z,28.77
2023-03-12T18:43:11.057Z,25.97
2023-03-12T18:47:11.264Z,30.33
2023-03-12T18:51:11.385Z,27.00
2023-03-12T18:55:11.585Z,30.27
2023-03-12T18:59:11.735Z,31.28
2023-03-12T19:03:11.969Z,29.55
2023-03-12T19:07:12.127Z,26.35
2023-03-12T19:11:12.286Z,37.31
2023-03-12T19:15:12.491Z,31.00
2023-03-12T19:19:12.641Z,35.33
2023-03-12T19:23:12.878Z,32.56
2023-03-12T19:27:13.034Z,27.33
2023-03-12T19:31:13.236Z,31.51
2023-03-12T19:35:13.372Z,35.08
2023-03-12T19:39:21.006Z,28.52
2023-03-12T19:43:14.566Z,29.24
2023-03-12T19:47:13.470Z,39.17
2023-03-12T19:51:13.617Z,34.48
2023-03-12T19:55:13.780Z,36.02
2023-03-12T19:59:13.975Z,38.18
2023-03-12T20:03:14.199Z,36.23
2023-03-12T20:07:14.463Z,35.36
2023-03-12T20:11:14.546Z,27.62
2023-03-12T20:15:14.730Z,31.49
2023-03-12T20:19:14.933Z,32.48
2023-03-12T20:23:15.157Z,29.27
2023-03-12T20:27:15.333Z,31.37
2023-03-12T20:31:15.539Z,25.00
2023-03-12T20:35:15.696Z,30.63
2023-03-12T20:39:15.892Z,28.57
2023-03-12T20:43:16.074Z,26.73
2023-03-12T20:47:16.265Z,34.74
2023-03-12T20:51:16.550Z,29.54
2023-03-12T20:55:16.641Z,30.56
2023-03-12T20:59:16.819Z,30.42
2023-03-12T21:03:17.051Z,27.50
2023-03-12T21:07:17.243Z,28.75
2023-03-12T21:11:17.421Z,27.80
2023-03-12T21:15:17.673Z,26.82
2023-03-12T21:19:17.857Z,30.61
2023-03-12T21:23:18.118Z,35.47
2023-03-12T21:27:18.314Z,30.92
2023-03-12T21:31:18.576Z,33.30
2023-03-12T21:35:18.821Z,30.03
2023-03-12T21:39:18.890Z,25.86
2023-03-12T21:43:19.106Z,32.90
2023-03-12T21:47:19.236Z,35.38
2023-03-12T21:51:19.219Z,34.33
2023-03-12T21:55:19.206Z,34.44
2023-03-12T21:59:19.108Z,31.58
2023-03-12T22:03:19.101Z,32.28
2023-03-12T22:07:19.054Z,29.69
2023-03-12T22:11:19.037Z,28.21
2023-03-12T22:15:18.998Z,31.97
2023-03-12T22:19:18.936Z,26.67
2023-03-12T22:23:18.905Z,30.17
2023-03-12T22:27:18.857Z,29.83
2023-03-12T22:31:19.001Z,27.88
2023-03-12T22:35:19.145Z,25.93
2023-03-12T22:39:19.293Z,29.90
2023-03-12T22:43:19.251Z,28.93
2023-03-12T22:47:19.227Z,33.24
2023-03-12T22:51:19.160Z,28.86
2023-03-12T22:55:19.152Z,30.00
2023-03-12T22:59:19.103Z,27.07
2023-03-12T23:03:19.074Z,25.53
2023-03-12T23:07:19.025Z,30.37
2023-03-12T23:11:19.015Z,28.84
2023-03-12T23:15:20.933Z,34.44
2023-03-12T23:19:19.027Z,37.42
2023-03-12T23:23:18.978Z,35.91
2023-03-12T23:27:18.959Z,34.30
2023-03-12T23:31:18.969Z,34.15
2023-03-12T23:35:18.909Z,33.12
2023-03-12T23:39:18.829Z,36.72
2023-03-12T23:43:18.801Z,30.34
2023-03-12T23:47:18.790Z,28.33
2023-03-12T23:51:18.754Z,26.84
2023-03-12T23:55:18.757Z,26.87
2023-03-12T23:59:18.639Z,32.94
